createdAt,value
2023-04-18T00:02:09.406Z,38.38
2023-04-18T00:04:36.875Z,37.67
2023-04-18T00:07:03.969Z,37.76
2023-04-18T00:09:31.186Z,38.31
2023-04-18T00:11:58.377Z,38.47
2023-04-18T00:14:25.429Z,38.06
2023-04-18T00:16:54.336Z,38.79
2023-04-18T00:19:21.792Z,39.08
2023-04-18T00:21:49.620Z,38.92
2023-04-18T00:24:16.832Z,38.84
2023-04-18T00:26:43.956Z,39.59
2023-04-18T00:29:11.135Z,39.37
2023-04-18T00:31:38.070Z,39.31
2023-04-18T00:34:05.588Z,39.58
2023-04-18T00:36:33.067Z,39.76
2023-04-18T00:39:00.516Z,40.07
2023-04-18T00:41:28.468Z,39.60
2023-04-18T00:43:55.910Z,39.75
2023-04-18T00:46:23.591Z,39.34
2023-04-18T00:48:50.897Z,39.75
2023-04-18T00:51:18.415Z,39.47
2023-04-18T00:53:46.297Z,39.78
2023-04-18T00:56:13.610Z,40.44
2023-04-18T00:58:41.145Z,40.56
2023-04-18T01:01:09.816Z,40.11
2023-04-18T01:03:37.622Z,40.60
2023-04-18T01:06:05.043Z,40.52
2023-04-18T01:08:34.011Z,40.36
2023-04-18T01:11:01.168Z,40.53
2023-04-18T01:13:28.194Z,40.61
2023-04-18T01:15:56.196Z,40.73
2023-04-18T01:18:24.531Z,40.60
2023-04-18T01:20:53.438Z,41.12
2023-04-18T01:23:21.625Z,41.41
2023-04-18T01:25:52.248Z,41.30
2023-04-18T01:28:24.147Z,41.38
2023-04-18T01:30:51.649Z,41.32
2023-04-18T01:33:18.892Z,41.23
2023-04-18T01:35:47.949Z,40.92
2023-04-18T01:38:15.149Z,41.06
2023-04-18T01:40:42.262Z,41.18
2023-04-18T01:43:09.783Z,40.82
2023-04-18T01:45:38.661Z,40.96
2023-04-18T01:48:06.108Z,41.12
2023-04-18T01:50:33.765Z,41.13
2023-04-18T01:53:00.878Z,41.25
2023-04-18T01:55:28.136Z,40.80
2023-04-18T01:57:55.357Z,41.21
2023-04-18T02:00:22.766Z,41.25
2023-04-18T02:02:50.648Z,41.02
2023-04-18T02:05:22.255Z,41.08
2023-04-18T02:07:50.446Z,41.11
2023-04-18T02:10:19.171Z,40.93
2023-04-18T02:12:46.869Z,41.98
2023-04-18T02:15:14.218Z,41.48
2023-04-18T02:17:42.264Z,41.70
2023-04-18T02:20:11.092Z,42.33
2023-04-18T02:22:41.680Z,42.79
2023-04-18T02:25:14.309Z,42.54
2023-04-18T02:27:41.506Z,42.44
2023-04-18T02:30:09.430Z,42.04
2023-04-18T02:32:39.336Z,42.00
2023-04-18T02:35:06.972Z,42.41
2023-04-18T02:37:34.104Z,42.16
2023-04-18T02:40:01.456Z,41.79
2023-04-18T02:42:33.149Z,41.88
2023-04-18T02:45:01.767Z,42.57
2023-04-18T02:47:40.486Z,43.11
2023-04-18T02:50:17.539Z,42.86
2023-04-18T02:52:51.195Z,43.77
2023-04-18T02:55:21.266Z,43.11
2023-04-18T02:57:48.848Z,43.16
2023-04-18T03:00:45.538Z,43.43
2023-04-18T03:03:30.824Z,43.68
2023-04-18T03:06:16.592Z,43.01
2023-04-18T03:08:46.158Z,42.53
2023-04-18T03:11:17.020Z,41.98
2023-04-18T03:13:45.902Z,41.55
2023-04-18T03:16:15.255Z,42.10
2023-04-18T03:18:43.727Z,41.57
2023-04-18T03:21:11.584Z,41.75
2023-04-18T03:23:39.130Z,42.09
2023-04-18T03:26:08.315Z,41.98
2023-04-18T03:28:37.889Z,42.35
2023-04-18T03:31:05.697Z,41.97
2023-04-18T03:33:35.975Z,41.59
2023-04-18T03:36:09.417Z,41.67
2023-04-18T03:38:40.670Z,41.67
2023-04-18T03:41:09.061Z,41.34
2023-04-18T03:43:38.183Z,41.75
2023-04-18T03:46:05.599Z,42.22
2023-04-18T03:48:37.385Z,44.09
2023-04-18T03:51:09.208Z,43.08
2023-04-18T03:53:37.160Z,43.53
2023-04-18T03:56:04.347Z,43.19
2023-04-18T03:59:01.023Z,43.46
2023-04-18T04:01:28.366Z,43.71
2023-04-18T04:03:56.030Z,43.82
2023-04-18T04:06:24.285Z,44.00
2023-04-18T04:08:52.237Z,44.15
2023-04-18T04:11:24.147Z,43.80
2023-04-18T04:13:54.628Z,43.54
2023-04-18T04:16:28.723Z,43.35
2023-04-18T04:18:59.372Z,43.27
2023-04-18T04:21:33.494Z,42.78
2023-04-18T04:24:01.700Z,42.47
2023-04-18T04:26:43.439Z,42.51
2023-04-18T04:29:19.127Z,42.48
2023-04-18T04:31:48.358Z,43.35
2023-04-18T04:34:24.987Z,43.27
2023-04-18T04:36:54.590Z,43.05
2023-04-18T04:39:42.261Z,42.95
2023-04-18T04:42:44.395Z,43.66
2023-04-18T04:45:24.676Z,42.95
2023-04-18T04:48:02.945Z,43.48
2023-04-18T04:50:31.140Z,42.87
2023-04-18T04:52:58.759Z,42.96
2023-04-18T04:55:26.466Z,42.94
2023-04-18T04:57:55.792Z,42.82
2023-04-18T05:00:37.364Z,42.56
2023-04-18T05:03:05.014Z,41.65
2023-04-18T05:05:33.113Z,41.59
2023-04-18T05:08:00.697Z,41.48
2023-04-18T05:10:28.158Z,40.92
2023-04-18T05:12:55.378Z,41.46
2023-04-18T05:15:23.481Z,40.77
2023-04-18T05:17:50.770Z,41.19
2023-04-18T05:20:17.836Z,42.10
2023-04-18T05:22:44.961Z,42.55
2023-04-18T05:25:12.749Z,42.06
2023-04-18T05:27:39.994Z,41.81
2023-04-18T05:30:07.782Z,41.72
2023-04-18T05:32:34.964Z,41.23
2023-04-18T05:35:02.176Z,41.41
2023-04-18T05:37:30.405Z,40.04
2023-04-18T05:39:59.299Z,39.82
2023-04-18T05:42:27.858Z,40.11
2023-04-18T05:44:54.883Z,41.14
2023-04-18T05:47:27.100Z,40.43
2023-04-18T05:49:55.577Z,40.88
2023-04-18T05:52:23.126Z,40.65
2023-04-18T05:54:50.168Z,40.53
2023-04-18T05:57:17.534Z,39.58
2023-04-18T05:59:44.918Z,39.16
2023-04-18T06:02:13.657Z,38.79
2023-04-18T06:04:42.659Z,39.17
2023-04-18T06:07:10.563Z,39.49
2023-04-18T06:09:37.723Z,38.64
2023-04-18T06:12:05.099Z,37.80
2023-04-18T06:14:32.313Z,36.94
2023-04-18T06:16:59.662Z,36.63
2023-04-18T06:19:26.849Z,37.53
2023-04-18T06:21:54.080Z,37.32
2023-04-18T06:24:21.285Z,37.45
2023-04-18T06:26:48.357Z,36.86
2023-04-18T06:29:15.566Z,36.17
2023-04-18T06:31:46.344Z,35.07
2023-04-18T06:34:14.211Z,34.42
2023-04-18T06:36:41.503Z,33.60
2023-04-18T06:39:09.025Z,33.19
2023-04-18T06:41:36.209Z,33.35
2023-04-18T06:44:04.711Z,31.83
2023-04-18T06:46:32.822Z,31.00
2023-04-18T06:49:00.941Z,30.78
2023-04-18T06:51:29.136Z,29.97
2023-04-18T06:53:56.343Z,29.81
2023-04-18T06:56:23.780Z,29.90
2023-04-18T06:58:53.038Z,29.45
2023-04-18T07:01:21.071Z,29.10
2023-04-18T07:03:48.219Z,28.25
2023-04-18T07:06:15.383Z,27.58
2023-04-18T07:08:42.596Z,26.76
2023-04-18T07:11:09.787Z,25.60
2023-04-18T07:13:36.935Z,25.37
2023-04-18T07:16:04.218Z,25.25
2023-04-18T07:18:37.874Z,24.61
2023-04-18T07:21:09.228Z,23.70
2023-04-18T07:23:39.636Z,23.70
2023-04-18T07:26:07.110Z,23.30
2023-04-18T07:28:34.776Z,22.44
2023-04-18T07:31:03.496Z,22.63
2023-04-18T07:33:35.284Z,22.47
2023-04-18T07:36:03.416Z,21.61
2023-04-18T07:38:31.067Z,21.29
2023-04-18T07:41:02.356Z,20.73
2023-04-18T07:43:30.901Z,20.09
2023-04-18T07:45:58.894Z,20.27
2023-04-18T07:48:27.368Z,20.01
2023-04-18T07:51:17.185Z,19.70
2023-04-18T07:53:50.921Z,19.51
2023-04-18T07:56:19.672Z,19.56
2023-04-18T07:58:49.206Z,19.78
2023-04-18T08:01:18.664Z,19.27
2023-04-18T08:03:51.638Z,19.32
2023-04-18T08:06:18.990Z,19.06
2023-04-18T08:08:46.627Z,19.05
2023-04-18T08:11:14.028Z,18.98
2023-04-18T08:13:41.120Z,18.97
2023-04-18T08:16:09.196Z,19.11
2023-04-18T08:18:37.163Z,19.19
2023-04-18T08:21:04.908Z,19.40
2023-04-18T08:23:32.096Z,18.80
2023-04-18T08:25:59.505Z,18.72
2023-04-18T08:28:26.938Z,18.43
2023-04-18T08:30:55.318Z,18.19
2023-04-18T08:33:26.587Z,18.58
2023-04-18T08:35:54.411Z,18.32
2023-04-18T08:38:21.625Z,18.02
2023-04-18T08:40:49.085Z,17.55
2023-04-18T08:43:16.231Z,17.65
2023-04-18T08:45:44.891Z,18.20
2023-04-18T08:48:14.063Z,18.91
2023-04-18T08:50:42.144Z,19.55
2023-04-18T08:53:10.562Z,19.57
2023-04-18T08:55:40.695Z,20.24
2023-04-18T08:58:08.130Z,20.83
2023-04-18T09:00:35.428Z,20.37
2023-04-18T09:03:03.825Z,20.00
2023-04-18T09:05:31.437Z,19.81
2023-04-18T09:07:58.521Z,19.74
2023-04-18T09:10:30.292Z,18.99
2023-04-18T09:12:58.579Z,18.47
2023-04-18T09:15:29.356Z,18.67
2023-04-18T09:17:59.599Z,19.06
2023-04-18T09:20:38.281Z,19.54
2023-04-18T09:23:11.373Z,19.37
2023-04-18T09:25:44.494Z,20.67
2023-04-18T09:28:29.123Z,21.42
2023-04-18T09:30:58.436Z,21.57
2023-04-18T09:33:33.123Z,22.61
2023-04-18T09:36:21.526Z,23.52
2023-04-18T09:38:50.397Z,24.79
2023-04-18T09:41:20.697Z,24.69
2023-04-18T09:43:49.533Z,25.29
2023-04-18T09:46:17.881Z,25.57
2023-04-18T09:48:45.669Z,25.62
2023-04-18T09:51:16.376Z,26.03
2023-04-18T09:53:47.591Z,25.83
2023-04-18T09:56:26.232Z,26.51
2023-04-18T09:59:03.432Z,26.82
2023-04-18T10:01:31.056Z,27.18
2023-04-18T10:04:02.390Z,26.76
2023-04-18T10:06:30.239Z,27.32
2023-04-18T10:08:57.821Z,27.50
2023-04-18T10:11:25.409Z,27.30
2023-04-18T10:13:57.692Z,27.75
2023-04-18T10:16:26.218Z,27.63
2023-04-18T10:18:53.473Z,28.31
2023-04-18T10:21:22.047Z,28.65
2023-04-18T10:23:50.540Z,28.50
2023-04-18T10:26:17.683Z,28.21
2023-04-18T10:28:53.675Z,28.65
2023-04-18T10:31:29.215Z,28.10
2023-04-18T10:34:18.233Z,28.96
2023-04-18T10:37:05.050Z,28.35
2023-04-18T10:39:48.682Z,28.56
2023-04-18T10:42:15.793Z,28.67
2023-04-18T10:44:43.031Z,28.64
2023-04-18T10:47:10.087Z,28.84
2023-04-18T10:49:37.156Z,28.42
2023-04-18T10:52:06.294Z,28.54
2023-04-18T10:54:57.619Z,28.20
2023-04-18T10:57:37.125Z,27.01
2023-04-18T11:00:05.726Z,26.74
2023-04-18T11:02:33.563Z,26.92
2023-04-18T11:05:04.757Z,26.88
2023-04-18T11:07:44.673Z,27.37
2023-04-18T11:10:13.170Z,27.62
2023-04-18T11:12:41.387Z,27.64
2023-04-18T11:15:17.800Z,27.82
2023-04-18T11:17:45.064Z,27.38
2023-04-18T11:20:14.541Z,27.13
2023-04-18T11:22:46.511Z,27.15
2023-04-18T11:25:16.542Z,27.60
2023-04-18T11:27:48.896Z,27.60
2023-04-18T11:30:16.372Z,28.72
2023-04-18T11:32:44.103Z,29.67
2023-04-18T11:35:12.852Z,29.27
2023-04-18T11:37:42.045Z,29.40
2023-04-18T11:40:10.234Z,29.22
2023-04-18T11:42:39.448Z,28.84
2023-04-18T11:45:12.132Z,29.22
2023-04-18T11:47:42.129Z,29.42
2023-04-18T11:50:11.309Z,29.62
2023-04-18T11:52:41.190Z,29.44
2023-04-18T11:55:21.465Z,29.59
2023-04-18T11:57:56.271Z,28.94
2023-04-18T12:00:38.674Z,29.31
2023-04-18T12:03:13.375Z,29.29
2023-04-18T12:05:42.543Z,28.95
2023-04-18T12:08:11.937Z,28.98
2023-04-18T12:10:47.255Z,28.90
2023-04-18T12:13:15.310Z,28.21
2023-04-18T12:15:47.070Z,28.51
2023-04-18T12:18:17.127Z,28.65
2023-04-18T12:20:54.305Z,28.29
2023-04-18T12:23:35.971Z,28.31
2023-04-18T12:26:08.050Z,28.45
2023-04-18T12:28:35.815Z,28.09
2023-04-18T12:31:07.138Z,28.09
2023-04-18T12:33:36.831Z,28.07
2023-04-18T12:36:05.582Z,27.61
2023-04-18T12:38:32.757Z,27.33
2023-04-18T12:41:00.111Z,27.06
2023-04-18T12:43:27.306Z,27.93
2023-04-18T12:45:54.547Z,28.08
2023-04-18T12:48:21.657Z,28.06
2023-04-18T12:50:48.920Z,27.92
2023-04-18T12:53:16.504Z,28.27
2023-04-18T12:55:44.557Z,27.94
2023-04-18T12:58:15.274Z,27.92
2023-04-18T13:00:42.539Z,27.98
2023-04-18T13:03:11.739Z,28.39
2023-04-18T13:05:40.588Z,28.81
2023-04-18T13:08:16.268Z,29.25
2023-04-18T13:10:44.791Z,29.09
2023-04-18T13:13:12.139Z,29.10
2023-04-18T13:15:39.480Z,29.42
2023-04-18T13:18:06.844Z,29.63
2023-04-18T13:20:34.915Z,29.38
2023-04-18T13:23:03.019Z,29.36
2023-04-18T13:25:30.244Z,29.22
2023-04-18T13:27:58.656Z,28.99
2023-04-18T13:30:26.286Z,28.01
2023-04-18T13:32:53.618Z,27.78
2023-04-18T13:35:20.770Z,27.37
2023-04-18T13:37:48.015Z,27.88
2023-04-18T13:40:15.864Z,27.92
2023-04-18T13:42:43.407Z,27.98
2023-04-18T13:45:10.953Z,27.45
2023-04-18T13:47:38.428Z,25.65
2023-04-18T13:50:06.214Z,24.70
2023-04-18T13:52:33.407Z,23.40
2023-04-18T13:55:01.118Z,22.96
2023-04-18T13:57:28.571Z,23.24
2023-04-18T13:59:55.793Z,24.15
2023-04-18T14:02:23.244Z,24.79
2023-04-18T14:04:52.055Z,25.75
2023-04-18T14:07:19.444Z,25.25
2023-04-18T14:09:48.273Z,24.56
2023-04-18T14:12:15.456Z,23.61
2023-04-18T14:14:42.526Z,22.92
2023-04-18T14:17:09.615Z,23.05
2023-04-18T14:19:36.758Z,23.56
2023-04-18T14:22:03.875Z,23.84
2023-04-18T14:24:30.914Z,24.21
2023-04-18T14:26:58.519Z,25.21
2023-04-18T14:29:25.583Z,25.78
2023-04-18T14:31:52.704Z,26.35
2023-04-18T14:34:19.893Z,26.76
2023-04-18T14:36:47.072Z,27.13
2023-04-18T14:39:14.322Z,27.38
2023-04-18T14:41:41.730Z,27.22
2023-04-18T14:44:08.916Z,27.99
2023-04-18T14:46:36.006Z,28.69
2023-04-18T14:49:03.076Z,28.96
2023-04-18T14:51:30.132Z,29.25
2023-04-18T14:53:57.210Z,29.81
2023-04-18T14:56:24.438Z,29.89
2023-04-18T14:58:51.588Z,30.44
2023-04-18T15:01:18.859Z,30.57
2023-04-18T15:03:46.281Z,30.89
2023-04-18T15:06:13.733Z,31.14
2023-04-18T15:08:41.511Z,31.43
2023-04-18T15:11:09.028Z,31.36
2023-04-18T15:13:36.808Z,31.47
2023-04-18T15:16:04.057Z,31.89
2023-04-18T15:18:31.224Z,32.76
2023-04-18T15:21:01.211Z,32.70
2023-04-18T15:23:28.661Z,32.72
2023-04-18T15:25:56.505Z,34.00
2023-04-18T15:28:23.850Z,34.15
2023-04-18T15:30:51.267Z,34.71
2023-04-18T15:33:20.587Z,34.59
2023-04-18T15:35:48.122Z,35.10
2023-04-18T15:38:15.297Z,35.16
2023-04-18T15:40:43.683Z,34.63
2023-04-18T15:43:11.844Z,35.89
2023-04-18T15:45:39.082Z,34.74
2023-04-18T15:48:06.795Z,35.16
2023-04-18T15:50:33.999Z,35.60
2023-04-18T15:53:02.438Z,35.59
2023-04-18T15:55:29.931Z,36.01
2023-04-18T15:57:57.470Z,36.62
2023-04-18T16:00:25.082Z,36.02
2023-04-18T16:02:52.897Z,36.02
2023-04-18T16:05:20.382Z,35.91
2023-04-18T16:07:47.515Z,36.67
2023-04-18T16:10:15.460Z,36.61
2023-04-18T16:12:42.976Z,36.22
2023-04-18T16:15:10.691Z,36.38
2023-04-18T16:17:38.267Z,36.00
2023-04-18T16:20:08.343Z,38.79
2023-04-18T16:22:36.137Z,36.92
2023-04-18T16:25:04.700Z,38.10
2023-04-18T16:27:33.157Z,36.95
2023-04-18T16:30:00.428Z,36.92
2023-04-18T16:32:27.652Z,36.78
2023-04-18T16:34:54.901Z,36.56
2023-04-18T16:37:22.178Z,38.23
2023-04-18T16:39:49.392Z,37.89
2023-04-18T16:42:16.628Z,38.06
2023-04-18T16:44:45.402Z,37.13
2023-04-18T16:47:12.642Z,39.94
2023-04-18T16:49:40.681Z,39.29
2023-04-18T16:52:07.710Z,37.79
2023-04-18T16:54:35.661Z,39.25
2023-04-18T16:57:02.925Z,38.69
2023-04-18T16:59:30.184Z,39.71
2023-04-18T17:01:57.299Z,38.48
2023-04-18T17:04:27.087Z,38.71
2023-04-18T17:06:54.321Z,39.34
2023-04-18T17:09:21.436Z,39.50
2023-04-18T17:11:48.689Z,39.30
2023-04-18T17:14:16.718Z,42.05
2023-04-18T17:16:44.116Z,40.62
2023-04-18T17:19:11.508Z,41.33
2023-04-18T17:21:38.872Z,40.93
2023-04-18T17:24:07.175Z,40.64
2023-04-18T17:26:35.789Z,39.57
2023-04-18T17:29:04.602Z,39.00
2023-04-18T17:31:32.770Z,39.32
2023-04-18T17:34:00.997Z,39.28
2023-04-18T17:36:28.409Z,39.38
2023-04-18T17:38:56.266Z,39.53
2023-04-18T17:41:23.447Z,39.38
2023-04-18T17:43:51.473Z,39.70
2023-04-18T17:46:18.802Z,39.93
2023-04-18T17:48:46.179Z,40.19
2023-04-18T17:51:13.353Z,41.41
2023-04-18T17:53:40.419Z,40.59
2023-04-18T17:56:07.531Z,40.38
2023-04-18T17:58:34.723Z,39.75
2023-04-18T18:01:01.934Z,39.94
2023-04-18T18:03:29.274Z,39.82
2023-04-18T18:05:56.743Z,40.25
2023-04-18T18:08:24.609Z,40.41
2023-04-18T18:10:51.665Z,40.52
2023-04-18T18:13:18.726Z,40.72
2023-04-18T18:15:45.883Z,40.68
2023-04-18T18:18:26.896Z,39.67
2023-04-18T18:20:54.631Z,40.28
2023-04-18T18:23:21.804Z,40.32
2023-04-18T18:25:50.346Z,40.13
2023-04-18T18:28:18.009Z,40.57
2023-04-18T18:30:45.102Z,40.80
2023-04-18T18:33:12.121Z,40.47
2023-04-18T18:35:39.415Z,40.78
2023-04-18T18:38:06.660Z,40.85
2023-04-18T18:40:34.392Z,40.66
2023-04-18T18:43:01.596Z,41.16
2023-04-18T18:45:28.782Z,40.95
2023-04-18T18:47:55.939Z,41.34
2023-04-18T18:50:23.318Z,41.66
2023-04-18T18:52:50.428Z,40.78
2023-04-18T18:55:17.768Z,41.25
2023-04-18T18:57:44.974Z,41.26
2023-04-18T19:00:13.514Z,41.13
2023-04-18T19:02:41.136Z,41.41
2023-04-18T19:05:09.004Z,41.25
2023-04-18T19:07:36.173Z,41.42
2023-04-18T19:10:03.655Z,41.87
2023-04-18T19:12:34.694Z,41.54
2023-04-18T19:15:02.342Z,41.87
2023-04-18T19:17:36.035Z,41.81
2023-04-18T19:20:03.647Z,42.10
2023-04-18T19:22:33.124Z,42.22
2023-04-18T19:25:00.934Z,41.99
2023-04-18T19:27:28.889Z,42.18
2023-04-18T19:29:56.019Z,41.81
2023-04-18T19:32:32.013Z,41.52
2023-04-18T19:34:59.735Z,41.74
2023-04-18T19:37:26.904Z,42.06
2023-04-18T19:39:54.104Z,42.10
2023-04-18T19:42:21.505Z,42.17
2023-04-18T19:44:48.529Z,41.99
2023-04-18T19:47:15.736Z,42.07
2023-04-18T19:49:44.684Z,42.23
2023-04-18T19:52:11.836Z,41.93
2023-04-18T19:54:39.014Z,41.70
2023-04-18T19:57:06.444Z,42.15
2023-04-18T19:59:33.696Z,41.79
2023-04-18T20:02:03.461Z,41.50
2023-04-18T20:04:34.454Z,41.73
2023-04-18T20:07:02.730Z,42.32
2023-04-18T20:09:29.966Z,41.81
2023-04-18T20:12:00.526Z,41.90
2023-04-18T20:14:29.141Z,41.88
2023-04-18T20:16:57.126Z,41.99
2023-04-18T20:19:27.192Z,42.04
2023-04-18T20:21:54.229Z,42.43
2023-04-18T20:24:21.525Z,42.10
2023-04-18T20:26:48.644Z,41.62
2023-04-18T20:29:16.280Z,42.06
2023-04-18T20:31:45.588Z,42.50
2023-04-18T20:34:20.363Z,42.38
2023-04-18T20:36:47.864Z,41.83
2023-04-18T20:39:15.744Z,42.21
2023-04-18T20:41:49.200Z,42.11
2023-04-18T20:44:17.262Z,42.14
2023-04-18T20:46:44.390Z,42.69
2023-04-18T20:49:11.887Z,42.72
2023-04-18T20:51:38.952Z,43.38
2023-04-18T20:54:06.203Z,43.43
2023-04-18T20:56:33.988Z,42.92
2023-04-18T20:59:01.391Z,43.25
2023-04-18T21:01:28.657Z,42.45
2023-04-18T21:03:56.063Z,43.09
2023-04-18T21:06:28.516Z,43.20
2023-04-18T21:08:57.013Z,42.91
2023-04-18T21:11:25.965Z,42.89
2023-04-18T21:13:53.321Z,42.71
2023-04-18T21:16:24.254Z,42.77
2023-04-18T21:18:51.770Z,42.83
2023-04-18T21:21:24.985Z,42.60
2023-04-18T21:23:52.986Z,42.08
2023-04-18T21:26:22.046Z,42.98
2023-04-18T21:32:01.100Z,42.76
2023-04-18T21:34:58.621Z,42.64
2023-04-18T21:37:27.504Z,42.84
2023-04-18T21:40:00.221Z,42.72
2023-04-18T21:42:35.404Z,42.53
2023-04-18T21:45:06.289Z,42.95
2023-04-18T21:47:33.833Z,42.58
2023-04-18T21:50:00.944Z,42.95
2023-04-18T21:52:29.145Z,42.58
2023-04-18T21:57:47.795Z,42.67
2023-04-18T22:00:16.267Z,42.84
2023-04-18T22:02:48.250Z,42.15
2023-04-18T22:05:18.122Z,42.38
2023-04-18T22:07:57.902Z,42.52
2023-04-18T22:10:25.898Z,41.98
2023-04-18T22:12:56.224Z,42.64
2023-04-18T22:15:30.892Z,42.15
2023-04-18T22:18:01.239Z,42.24
2023-04-18T22:20:32.717Z,41.84
2023-04-18T22:23:00.533Z,41.70
2023-04-18T22:25:27.687Z,41.56
2023-04-18T22:27:55.012Z,42.53
2023-04-18T22:30:22.374Z,41.78
2023-04-18T22:32:49.855Z,42.01
2023-04-18T22:35:17.090Z,41.77
2023-04-18T22:37:47.902Z,42.39
2023-04-18T22:40:16.910Z,41.82
2023-04-18T22:42:44.813Z,42.77
2023-04-18T22:45:12.142Z,42.60
2023-04-18T22:47:39.826Z,42.95
2023-04-18T22:50:07.997Z,42.81
2023-04-18T22:52:40.875Z,42.75
2023-04-18T22:55:09.429Z,42.92
2023-04-18T22:57:38.185Z,42.65
2023-04-18T23:00:06.750Z,43.38
2023-04-18T23:02:34.048Z,42.71
2023-04-18T23:05:02.684Z,43.14
2023-04-18T23:07:30.913Z,43.33
2023-04-18T23:10:07.893Z,43.38
2023-04-18T23:12:44.092Z,43.34
2023-04-18T23:15:15.031Z,43.44
2023-04-18T23:17:53.995Z,43.16
2023-04-18T23:20:21.887Z,43.18
2023-04-18T23:22:59.526Z,43.42
2023-04-18T23:25:26.935Z,43.27
2023-04-18T23:27:56.315Z,43.39
2023-04-18T23:30:27.002Z,43.56
2023-04-18T23:32:58.922Z,43.33
2023-04-18T23:35:31.887Z,43.08
2023-04-18T23:37:59.026Z,43.45
2023-04-18T23:40:26.248Z,43.41
2023-04-18T23:42:53.345Z,43.33
2023-04-18T23:45:20.612Z,43.23
2023-04-18T23:47:47.887Z,43.46
2023-04-18T23:50:15.026Z,43.30
2023-04-18T23:52:42.172Z,43.16
